Time;durP1;ratioP1;P1;durP2;ratioP2;P2;SDS_P1;SDS_P2;PMS_P1;PMS_P2;Temp;Humidity;BMP_temperature;BMP_pressure;BME280_temperature;BME280_humidity;BME280_pressure;Samples;Min_cycle;Max_cycle;Signal;HPM_P1;HPM_P2
2022/11/26 00:02:20;;;;;;;20.67;12.43;;;;;;;5.02;100.00;96649.63;5084806;28;20028;-60
2022/11/26 00:04:46;;;;;;;18.90;10.27;;;;;;;5.02;100.00;96647.84;5079454;28;20398;-60
2022/11/26 00:07:12;;;;;;;13.25;8.07;;;;;;;5.12;100.00;96656.03;5084036;28;20031;-60
2022/11/26 00:09:38;;;;;;;14.65;8.50;;;;;;;5.30;100.00;96654.19;5080521;28;20035;-70
2022/11/26 00:12:22;;;;;;;15.43;8.10;;;;;;;5.34;100.00;96667.91;5084807;28;20025;-64
2022/11/26 00:14:48;;;;;;;16.15;7.75;;;;;;;5.51;100.00;96671.34;5084730;28;20024;-64
2022/11/26 00:17:14;;;;;;;11.20;6.90;;;;;;;5.63;100.00;96675.84;5087204;28;20485;-64
2022/11/26 00:19:41;;;;;;;16.02;7.32;;;;;;;5.71;100.00;96668.44;5079903;28;20024;-64
2022/11/26 00:22:26;;;;;;;12.60;6.80;;;;;;;5.84;100.00;96670.31;5090884;28;20048;-64
2022/11/26 00:24:52;;;;;;;13.55;5.85;;;;;;;5.97;100.00;96680.94;5081821;28;20024;-63
2022/11/26 00:27:18;;;;;;;9.65;5.65;;;;;;;5.83;100.00;96687.78;5082865;28;20028;-64
2022/11/26 00:29:43;;;;;;;10.95;5.90;;;;;;;5.83;100.00;96693.03;5079784;28;20056;-72
2022/11/26 00:32:18;;;;;;;10.32;5.68;;;;;;;5.99;100.00;96686.91;5088351;28;20060;-72
2022/11/26 00:34:43;;;;;;;10.23;4.85;;;;;;;6.14;100.00;96690.44;5080097;28;20115;-72
2022/11/26 00:37:40;;;;;;;12.98;6.10;;;;;;;5.96;100.00;96701.00;5084750;28;20103;-71
2022/11/26 00:40:13;;;;;;;12.85;7.35;;;;;;;5.92;100.00;96696.88;5077578;28;20090;-72
2022/11/26 00:42:38;;;;;;;14.85;7.32;;;;;;;5.86;100.00;96698.06;5084615;28;20032;-72
2022/11/26 00:45:16;;;;;;;11.60;6.32;;;;;;;5.85;100.00;96691.16;5086732;28;20031;-72
2022/11/26 00:47:42;;;;;;;10.80;5.55;;;;;;;5.88;100.00;96690.97;5087854;28;20016;-72
2022/11/26 00:50:13;;;;;;;13.18;6.07;;;;;;;5.82;100.00;96696.56;5082664;28;20016;-69
2022/11/26 00:52:38;;;;;;;16.48;5.78;;;;;;;5.79;100.00;96701.97;5085726;28;20048;-72
2022/11/26 00:55:14;;;;;;;13.18;6.22;;;;;;;5.79;100.00;96707.19;5087715;28;20066;-73
2022/11/26 00:57:40;;;;;;;12.55;5.82;;;;;;;5.71;100.00;96712.84;5083143;28;20020;-72
2022/11/26 01:00:14;;;;;;;15.32;6.07;;;;;;;5.71;100.00;96714.63;5083065;28;20504;-72
2022/11/26 01:02:39;;;;;;;8.13;5.43;;;;;;;5.69;100.00;96709.50;5080598;28;20497;-72
2022/11/26 01:05:05;;;;;;;13.02;5.28;;;;;;;5.71;100.00;96714.63;5088216;28;20032;-72
2022/11/26 01:07:31;;;;;;;11.52;5.80;;;;;;;5.63;100.00;96724.66;5085095;28;20110;-72
2022/11/26 01:09:56;;;;;;;10.50;7.07;;;;;;;5.62;100.00;96739.47;5083347;28;20537;-72
2022/11/26 01:12:21;;;;;;;8.93;5.75;;;;;;;5.58;100.00;96732.75;5083598;28;20514;-69
2022/11/26 01:14:47;;;;;;;12.65;5.97;;;;;;;5.76;100.00;96746.56;5082190;28;20021;-69
2022/11/26 01:17:12;;;;;;;8.70;5.00;;;;;;;5.84;100.00;96746.97;5088214;28;20094;-69
2022/11/26 01:19:37;;;;;;;7.05;4.85;;;;;;;5.90;100.00;96758.00;5084275;28;20049;-69
2022/11/26 01:22:03;;;;;;;9.07;5.00;;;;;;;5.81;100.00;96751.53;5088252;28;20023;-69
2022/11/26 01:24:28;;;;;;;15.07;6.93;;;;;;;5.91;100.00;96763.16;5082083;28;20154;-69
2022/11/26 01:26:53;;;;;;;11.02;5.22;;;;;;;6.12;100.00;96768.13;5082655;28;20497;-64
2022/11/26 01:29:19;;;;;;;10.27;8.45;;;;;;;5.93;100.00;96771.75;5087241;28;20493;-64
2022/11/26 01:31:45;;;;;;;18.23;13.95;;;;;;;5.82;100.00;96774.13;5081598;28;20478;-64
2022/11/26 01:34:10;;;;;;;10.60;7.88;;;;;;;5.80;100.00;96789.91;5087529;28;20059;-64
2022/11/26 01:36:38;;;;;;;8.85;6.68;;;;;;;5.77;100.00;96802.28;5085683;28;20024;-64
2022/11/26 01:39:16;;;;;;;13.50;5.20;;;;;;;5.80;100.00;96802.09;5083773;28;20486;-64
2022/11/26 01:41:54;;;;;;;9.85;5.88;;;;;;;5.81;100.00;96803.78;5081199;28;20020;-64
2022/11/26 01:44:28;;;;;;;9.77;5.05;;;;;;;5.86;100.00;96799.19;5080530;28;20035;-64
2022/11/26 01:46:54;;;;;;;8.68;4.57;;;;;;;5.79;100.00;96797.81;5088843;28;20027;-64
2022/11/26 01:49:33;;;;;;;8.25;4.90;;;;;;;5.81;100.00;96802.03;5083721;28;20451;-64
2022/11/26 01:52:22;;;;;;;13.93;5.68;;;;;;;5.74;100.00;96803.28;5087963;28;20024;-64
2022/11/26 01:54:49;;;;;;;11.23;5.18;;;;;;;5.82;100.00;96821.16;5077229;28;20025;-64
2022/11/26 01:57:19;;;;;;;12.75;6.13;;;;;;;5.71;100.00;96825.22;5084420;28;20036;-64
2022/11/26 01:59:51;;;;;;;11.73;6.25;;;;;;;5.85;100.00;96810.53;5091515;28;20020;-65
2022/11/26 02:02:18;;;;;;;9.75;5.65;;;;;;;5.78;100.00;96804.81;5082146;28;20050;-64
2022/11/26 02:04:55;;;;;;;13.13;4.95;;;;;;;5.75;100.00;96812.84;5083642;28;20027;-61
2022/11/26 02:07:20;;;;;;;12.25;4.93;;;;;;;5.71;100.00;96813.91;5084729;28;20141;-69
2022/11/26 02:09:46;;;;;;;14.65;6.82;;;;;;;5.70;100.00;96823.53;5082418;28;20036;-72
2022/11/26 02:12:11;;;;;;;14.57;8.52;;;;;;;5.67;100.00;96815.88;5082533;28;20024;-72
2022/11/26 02:14:40;;;;;;;14.82;6.85;;;;;;;5.63;100.00;96823.94;5082463;28;20113;-71
2022/11/26 02:17:05;;;;;;;11.00;6.10;;;;;;;5.62;100.00;96823.09;5085243;28;20029;-71
2022/11/26 02:19:43;;;;;;;11.10;6.38;;;;;;;5.58;100.00;96811.97;5083666;28;20096;-71
2022/11/26 02:22:18;;;;;;;11.82;5.88;;;;;;;5.36;100.00;96812.28;5081524;28;20072;-71
2022/11/26 02:25:03;;;;;;;11.60;5.10;;;;;;;5.24;100.00;96815.56;5085799;28;20020;-70
2022/11/26 02:27:45;;;;;;;9.85;5.07;;;;;;;5.05;100.00;96800.88;5084887;28;20028;-62
2022/11/26 02:30:12;;;;;;;9.50;5.25;;;;;;;5.13;100.00;96797.84;5083364;28;20106;-62
2022/11/26 02:32:50;;;;;;;8.35;4.75;;;;;;;5.06;100.00;96799.94;5083009;28;20028;-62
2022/11/26 02:35:25;;;;;;;8.60;5.18;;;;;;;4.90;100.00;96780.78;5083691;28;20104;-62
2022/11/26 02:37:57;;;;;;;7.75;4.70;;;;;;;4.74;100.00;96778.94;5084648;28;20020;-62
2022/11/26 02:40:23;;;;;;;8.60;4.80;;;;;;;4.60;100.00;96771.84;5080877;28;20569;-62
2022/11/26 02:42:48;;;;;;;7.68;4.88;;;;;;;4.48;100.00;96760.25;5078422;28;20032;-69
2022/11/26 02:45:19;;;;;;;8.73;4.82;;;;;;;4.38;100.00;96749.47;5079911;28;20489;-65
2022/11/26 02:47:47;;;;;;;6.43;4.50;;;;;;;4.27;100.00;96736.97;5083620;28;20026;-62
2022/11/26 02:50:19;;;;;;;13.00;5.20;;;;;;;4.22;100.00;96738.97;5083419;28;20489;-62
2022/11/26 02:52:47;;;;;;;10.77;5.55;;;;;;;4.18;100.00;96732.22;5081936;28;20141;-62
2022/11/26 02:55:15;;;;;;;8.85;5.05;;;;;;;4.12;100.00;96724.72;5083480;28;20043;-62
2022/11/26 02:57:47;;;;;;;8.13;4.50;;;;;;;4.05;100.00;96715.50;5076591;28;20505;-62
2022/11/26 03:00:14;;;;;;;11.88;4.75;;;;;;;4.04;100.00;96719.88;5082206;28;20019;-62
2022/11/26 03:03:01;;;;;;;10.05;4.90;;;;;;;4.16;100.00;96721.84;5083570;28;20024;-72
2022/11/26 03:05:31;;;;;;;12.23;6.57;;;;;;;4.18;100.00;96718.34;5079472;28;20493;-64
2022/11/26 03:07:58;;;;;;;12.82;6.53;;;;;;;4.20;100.00;96714.75;5084546;28;20410;-60
2022/11/26 03:10:27;;;;;;;7.85;5.97;;;;;;;3.94;100.00;96727.31;5081593;28;20020;-59
2022/11/26 03:12:53;;;;;;;17.25;6.93;;;;;;;3.77;100.00;96722.94;5081960;28;20095;-60
2022/11/26 03:15:18;;;;;;;12.52;6.78;;;;;;;3.59;100.00;96729.84;5077348;28;20465;-60
2022/11/26 03:17:43;;;;;;;11.73;7.43;;;;;;;3.52;100.00;96731.06;5080973;28;20078;-60
2022/11/26 03:20:09;;;;;;;15.75;7.20;;;;;;;3.45;100.00;96733.13;5076965;28;20035;-60
2022/11/26 03:22:34;;;;;;;13.70;7.28;;;;;;;3.39;100.00;96736.00;5080873;28;20035;-61
2022/11/26 03:24:59;;;;;;;16.15;7.88;;;;;;;3.35;100.00;96734.47;5078606;28;20398;-64
2022/11/26 03:27:25;;;;;;;24.10;11.38;;;;;;;3.35;100.00;96740.50;5079672;28;20069;-64
2022/11/26 03:29:50;;;;;;;43.17;22.52;;;;;;;3.40;100.00;96741.13;5082186;28;20024;-64
2022/11/26 03:32:15;;;;;;;45.15;23.25;;;;;;;3.30;100.00;96745.91;5080847;28;20024;-64
2022/11/26 03:34:41;;;;;;;26.48;13.80;;;;;;;3.27;100.00;96750.44;5080627;28;20020;-64
2022/11/26 03:37:07;;;;;;;14.52;8.23;;;;;;;3.31;100.00;96751.97;5080609;28;20044;-64
2022/11/26 03:39:33;;;;;;;12.30;6.10;;;;;;;3.37;100.00;96745.66;5063688;28;20020;-66
2022/11/26 03:41:58;;;;;;;12.95;5.90;;;;;;;3.38;100.00;96745.56;5085062;28;20501;-61
2022/11/26 03:44:23;;;;;;;10.55;6.68;;;;;;;3.46;100.00;96744.38;5083443;28;20393;-61
2022/11/26 03:46:49;;;;;;;12.98;6.57;;;;;;;3.55;100.00;96744.78;5079820;28;20099;-61
2022/11/26 03:49:14;;;;;;;9.65;6.70;;;;;;;3.60;100.00;96748.94;5088147;28;20044;-61
2022/11/26 03:51:39;;;;;;;16.10;6.22;;;;;;;3.61;100.00;96737.59;5085597;28;20020;-61
2022/11/26 03:54:05;;;;;;;10.52;5.82;;;;;;;3.61;100.00;96735.81;5084641;28;20055;-61
2022/11/26 03:56:30;;;;;;;8.90;5.82;;;;;;;3.57;100.00;96732.53;5079263;28;20028;-61
2022/11/26 03:58:56;;;;;;;10.50;6.00;;;;;;;3.49;100.00;96726.00;5090688;28;20508;-61
2022/11/26 04:01:21;;;;;;;12.02;5.50;;;;;;;3.42;100.00;96733.25;5082120;28;20028;-69
2022/11/26 04:03:46;;;;;;;11.20;5.60;;;;;;;3.37;100.00;96738.66;5093714;28;20522;-71
2022/11/26 04:06:13;;;;;;;10.13;5.40;;;;;;;3.39;100.00;96742.03;5092374;28;20028;-71
2022/11/26 04:08:38;;;;;;;15.27;5.30;;;;;;;3.41;100.00;96748.03;5086901;28;20081;-71
2022/11/26 04:11:04;;;;;;;9.70;6.15;;;;;;;3.50;100.00;96751.97;5085918;28;20025;-72
2022/11/26 04:13:29;;;;;;;11.38;5.18;;;;;;;3.54;100.00;96750.94;5088431;28;20371;-72
2022/11/26 04:15:54;;;;;;;12.57;5.85;;;;;;;3.63;100.00;96761.81;5092501;28;20019;-72
2022/11/26 04:18:20;;;;;;;7.90;5.22;;;;;;;3.64;100.00;96753.06;5086801;28;20029;-71
2022/11/26 04:20:45;;;;;;;7.78;5.80;;;;;;;3.61;100.00;96756.66;5081080;28;20097;-59
2022/11/26 04:23:12;;;;;;;9.88;5.32;;;;;;;3.61;100.00;96756.66;5084678;28;20023;-73
2022/11/26 04:25:37;;;;;;;9.13;5.18;;;;;;;3.60;100.00;96754.97;5089108;28;20404;-72
2022/11/26 04:28:02;;;;;;;7.22;5.18;;;;;;;3.61;100.00;96759.25;5095523;28;20028;-72
2022/11/26 04:30:28;;;;;;;9.23;5.07;;;;;;;3.61;100.00;96753.22;5085786;28;20468;-72
2022/11/26 04:32:53;;;;;;;10.18;5.70;;;;;;;3.61;100.00;96758.44;5080164;28;20040;-72
2022/11/26 04:35:18;;;;;;;11.93;6.03;;;;;;;3.66;100.00;96767.72;5087352;28;20635;-72
2022/11/26 04:37:44;;;;;;;7.78;5.25;;;;;;;3.70;100.00;96771.00;5087512;28;20024;-72
2022/11/26 04:40:10;;;;;;;6.38;5.32;;;;;;;3.70;100.00;96771.00;5090446;28;20031;-62
2022/11/26 04:42:35;;;;;;;12.30;7.07;;;;;;;3.70;100.00;96766.66;5081998;28;20056;-64
2022/11/26 04:45:00;;;;;;;13.50;6.57;;;;;;;3.72;100.00;96772.63;5081186;28;20142;-64
2022/11/26 04:47:26;;;;;;;14.05;6.75;;;;;;;3.73;100.00;96776.94;5088314;28;20028;-64
2022/11/26 04:49:51;;;;;;;8.35;5.32;;;;;;;3.83;100.00;96774.72;5086203;28;20017;-64
2022/11/26 04:52:17;;;;;;;10.50;5.43;;;;;;;3.89;100.00;96778.81;5087458;28;20052;-64
2022/11/26 04:54:42;;;;;;;8.90;5.25;;;;;;;3.90;100.00;96779.63;5077004;28;20107;-64
2022/11/26 04:57:07;;;;;;;12.15;5.82;;;;;;;3.85;100.00;96777.25;5087031;28;20414;-64
2022/11/26 04:59:33;;;;;;;9.77;5.55;;;;;;;3.90;100.00;96777.03;5084566;28;20082;-62
2022/11/26 05:01:58;;;;;;;9.77;5.40;;;;;;;3.86;100.00;96777.19;5089396;28;20016;-62
2022/11/26 05:04:28;;;;;;;9.20;6.10;;;;;;;3.84;100.00;96776.41;5089547;28;20116;-62
2022/11/26 05:06:53;;;;;;;13.50;6.65;;;;;;;3.81;100.00;96775.72;5080919;28;20082;-62
2022/11/26 05:09:19;;;;;;;11.40;6.70;;;;;;;3.76;100.00;96775.94;5082535;28;20493;-62
2022/11/26 05:11:44;;;;;;;13.00;7.53;;;;;;;3.76;100.00;96764.66;5075162;28;20036;-62
2022/11/26 05:14:10;;;;;;;13.10;6.47;;;;;;;3.81;100.00;96765.28;5085413;28;20031;-62
2022/11/26 05:16:35;;;;;;;13.38;7.22;;;;;;;3.84;100.00;96754.72;5092987;28;20024;-62
2022/11/26 05:19:00;;;;;;;8.85;6.72;;;;;;;3.97;100.00;96761.03;5094257;28;20028;-62
2022/11/26 05:21:26;;;;;;;11.82;7.25;;;;;;;3.90;100.00;96746.63;5085965;28;20028;-60
2022/11/26 05:23:51;;;;;;;13.60;6.70;;;;;;;3.95;100.00;96749.84;5088916;28;20044;-60
2022/11/26 05:26:16;;;;;;;11.32;7.55;;;;;;;3.92;100.00;96751.75;5085110;28;20023;-60
2022/11/26 05:28:42;;;;;;;15.52;7.80;;;;;;;3.92;100.00;96756.94;5075389;28;20081;-60
2022/11/26 05:31:07;;;;;;;13.40;7.75;;;;;;;3.91;100.00;96755.25;5085652;28;20032;-60
2022/11/26 05:33:33;;;;;;;11.23;7.13;;;;;;;3.91;100.00;96763.94;5050522;28;1121744;-60
2022/11/26 05:35:59;;;;;;;8.90;6.30;;;;;;;3.90;100.00;96777.88;5086639;28;20031;-60
2022/11/26 05:38:24;;;;;;;9.98;6.53;;;;;;;3.89;100.00;96773.59;5088309;28;20493;-61
2022/11/26 05:40:49;;;;;;;8.20;6.07;;;;;;;3.86;100.00;96764.16;5087096;28;20024;-61
2022/11/26 05:43:15;;;;;;;9.55;5.50;;;;;;;3.90;100.00;96764.88;5077185;28;20507;-61
2022/11/26 05:45:40;;;;;;;10.63;6.03;;;;;;;3.85;100.00;96762.47;5087994;28;20031;-61
2022/11/26 05:48:05;;;;;;;10.32;6.05;;;;;;;3.75;100.00;96761.22;5089621;28;20072;-61
2022/11/26 05:50:32;;;;;;;6.78;4.97;;;;;;;3.68;100.00;96770.25;5084225;28;20069;-62
2022/11/26 05:52:57;;;;;;;14.85;6.63;;;;;;;3.65;100.00;96765.19;5089461;28;20024;-61
2022/11/26 05:55:23;;;;;;;9.35;6.88;;;;;;;3.68;100.00;96772.84;5084418;28;20035;-69
2022/11/26 05:57:48;;;;;;;11.13;7.32;;;;;;;3.70;100.00;96774.47;5080389;28;20027;-64
2022/11/26 06:00:14;;;;;;;13.48;7.35;;;;;;;3.72;100.00;96777.84;5082414;28;20497;-65
2022/11/26 06:02:40;;;;;;;13.30;7.43;;;;;;;3.72;100.00;96780.44;5084697;28;20024;-64
2022/11/26 06:05:06;;;;;;;9.50;6.95;;;;;;;3.70;100.00;96784.88;5090580;28;20099;-65
2022/11/26 06:07:31;;;;;;;12.63;7.70;;;;;;;3.71;100.00;96781.38;5091386;28;20031;-65
2022/11/26 06:09:57;;;;;;;15.07;8.30;;;;;;;3.72;100.00;96777.84;5084024;28;20024;-64
2022/11/26 06:12:23;;;;;;;10.35;7.90;;;;;;;3.73;100.00;96782.13;5083118;28;20031;-64
2022/11/26 06:14:48;;;;;;;12.43;8.00;;;;;;;3.75;100.00;96786.44;5083794;28;20042;-61
2022/11/26 06:17:13;;;;;;;11.10;7.32;;;;;;;3.70;100.00;96779.69;5087978;28;20408;-61
2022/11/26 06:19:39;;;;;;;14.60;9.60;;;;;;;3.82;100.00;96785.22;5082271;28;20103;-70
2022/11/26 06:22:04;;;;;;;17.90;12.93;;;;;;;3.97;100.00;96800.13;5085721;28;20016;-70
2022/11/26 06:24:30;;;;;;;17.73;13.32;;;;;;;3.96;100.00;96780.19;5077883;28;20112;-70
2022/11/26 06:26:55;;;;;;;12.20;9.57;;;;;;;3.76;100.00;96782.91;5083268;28;20035;-70
2022/11/26 06:29:20;;;;;;;14.43;9.00;;;;;;;3.68;100.00;96791.06;5088265;28;20486;-69
2022/11/26 06:31:46;;;;;;;13.93;9.60;;;;;;;3.65;100.00;96792.09;5089662;28;20035;-69
2022/11/26 06:34:13;;;;;;;15.57;10.02;;;;;;;3.63;100.00;96791.28;5086605;28;20040;-64
2022/11/26 06:36:38;;;;;;;12.20;9.20;;;;;;;3.72;100.00;96798.69;5085505;28;20398;-64
2022/11/26 06:39:04;;;;;;;19.00;14.38;;;;;;;3.70;100.00;96805.72;5085784;28;20036;-64
2022/11/26 06:41:29;;;;;;;15.57;9.60;;;;;;;3.64;100.00;96797.34;5081655;28;20397;-64
2022/11/26 06:43:54;;;;;;;11.90;9.68;;;;;;;3.60;100.00;96799.25;5082103;28;20039;-64
2022/11/26 06:46:20;;;;;;;13.52;10.27;;;;;;;3.61;100.00;96794.91;5086585;28;20032;-64
2022/11/26 06:48:45;;;;;;;11.48;8.75;;;;;;;3.63;100.00;96793.06;5085922;28;20078;-64
2022/11/26 06:51:14;;;;;;;11.80;8.90;;;;;;;3.63;100.00;96793.88;5089294;28;20471;-64
2022/11/26 06:53:40;;;;;;;14.48;9.60;;;;;;;3.62;100.00;96800.00;5079703;28;20017;-68
2022/11/26 06:56:12;;;;;;;13.75;10.27;;;;;;;3.65;100.00;96801.66;5087870;28;20030;-71
2022/11/26 06:58:38;;;;;;;13.90;10.25;;;;;;;3.68;100.00;96806.72;5088595;28;20096;-71
2022/11/26 07:01:16;;;;;;;13.32;10.80;;;;;;;3.75;100.00;96805.50;5085605;28;20052;-70
2022/11/26 07:03:41;;;;;;;11.07;8.55;;;;;;;3.79;100.00;96814.00;5085581;28;20082;-70
2022/11/26 07:06:22;;;;;;;10.80;9.00;;;;;;;3.83;100.00;96803.38;5088633;28;20035;-70
2022/11/26 07:08:48;;;;;;;10.50;7.85;;;;;;;3.96;100.00;96821.03;5085302;28;20059;-70
2022/11/26 07:11:14;;;;;;;14.07;9.30;;;;;;;3.93;100.00;96824.63;5083697;28;20108;-70
2022/11/26 07:13:39;;;;;;;9.35;8.10;;;;;;;3.96;100.00;96819.28;5083699;28;20456;-60
2022/11/26 07:16:05;;;;;;;21.52;14.80;;;;;;;3.91;100.00;96823.00;5088412;28;20114;-64
2022/11/26 07:18:31;;;;;;;19.00;14.00;;;;;;;3.87;100.00;96835.34;5090886;28;20032;-69
2022/11/26 07:21:02;;;;;;;21.60;15.68;;;;;;;3.85;100.00;96829.34;5086862;28;20027;-70
2022/11/26 07:23:27;;;;;;;24.15;17.83;;;;;;;3.84;100.00;96841.53;5083290;28;20035;-70
2022/11/26 07:25:53;;;;;;;27.48;18.45;;;;;;;3.83;100.00;96842.47;5085267;28;20025;-70
2022/11/26 07:28:18;;;;;;;27.63;20.05;;;;;;;3.83;100.00;96837.25;5079736;28;20016;-70
2022/11/26 07:30:43;;;;;;;29.02;20.90;;;;;;;3.81;100.00;96861.69;5081827;28;20024;-69
2022/11/26 07:33:09;;;;;;;33.30;25.65;;;;;;;3.81;100.00;96859.94;5082070;28;20031;-69
2022/11/26 07:35:36;;;;;;;27.92;23.85;;;;;;;3.86;100.00;96878.78;5077692;28;20048;-70
2022/11/26 07:38:01;;;;;;;32.28;24.60;;;;;;;3.98;100.00;96866.94;5084760;28;20505;-70
2022/11/26 07:40:27;;;;;;;31.45;24.50;;;;;;;3.97;100.00;96874.81;5082971;28;20027;-70
2022/11/26 07:42:52;;;;;;;24.23;18.05;;;;;;;4.09;100.00;96882.09;5083501;28;20533;-70
2022/11/26 07:45:17;;;;;;;11.95;8.73;;;;;;;4.15;100.00;96889.59;5072924;28;20032;-71
2022/11/26 07:47:43;;;;;;;7.78;6.78;;;;;;;4.20;100.00;96897.22;5081597;28;20043;-70
2022/11/26 07:50:08;;;;;;;10.15;7.05;;;;;;;4.37;100.00;96893.78;5084360;28;20040;-71
2022/11/26 07:52:34;;;;;;;10.20;7.07;;;;;;;4.47;100.00;96909.00;5085259;28;20028;-60
2022/11/26 07:54:59;;;;;;;13.32;6.95;;;;;;;4.50;100.00;96914.91;5080043;28;20474;-68
2022/11/26 07:57:24;;;;;;;11.77;7.97;;;;;;;4.52;100.00;96927.88;5089413;28;20071;-69
2022/11/26 07:59:50;;;;;;;10.88;7.63;;;;;;;4.52;100.00;96920.88;5087660;28;20020;-69
2022/11/26 08:02:16;;;;;;;11.77;8.07;;;;;;;4.60;100.00;96930.94;5087253;28;20027;-69
2022/11/26 08:04:41;;;;;;;11.30;7.55;;;;;;;4.61;100.00;96943.06;5083163;28;20047;-69
2022/11/26 08:07:07;;;;;;;10.13;7.70;;;;;;;4.58;100.00;96938.88;5087785;28;20113;-68
2022/11/26 08:09:32;;;;;;;11.98;9.88;;;;;;;4.68;100.00;96943.63;5079694;28;20021;-70
2022/11/26 08:11:57;;;;;;;11.98;8.40;;;;;;;4.78;100.00;96944.03;5089305;28;20028;-70
2022/11/26 08:14:23;;;;;;;12.70;7.93;;;;;;;4.70;100.00;96947.00;5084513;28;20017;-60
2022/11/26 08:16:48;;;;;;;12.70;7.82;;;;;;;4.56;100.00;96951.16;5062507;28;20024;-62
2022/11/26 08:19:13;;;;;;;8.02;7.13;;;;;;;4.50;100.00;96946.19;5087160;28;20066;-64
2022/11/26 08:21:39;;;;;;;9.18;7.03;;;;;;;4.47;100.00;96951.56;5081707;28;20468;-63
2022/11/26 08:24:06;;;;;;;9.93;8.32;;;;;;;4.44;100.00;96942.16;5089184;28;20411;-63
2022/11/26 08:26:32;;;;;;;9.27;7.55;;;;;;;4.53;100.00;96947.81;5087969;28;20028;-63
2022/11/26 08:28:59;;;;;;;10.52;6.97;;;;;;;4.54;100.00;96945.16;5082268;28;20039;-62
2022/11/26 08:31:26;;;;;;;7.30;5.43;;;;;;;4.57;100.00;96942.41;5085917;28;20082;-61
2022/11/26 08:33:54;;;;;;;9.07;6.57;;;;;;;4.62;100.00;96949.97;5087370;28;20046;-68
2022/11/26 08:36:20;;;;;;;8.98;5.97;;;;;;;4.78;100.00;96944.88;5090221;28;20029;-65
2022/11/26 08:38:45;;;;;;;9.98;6.60;;;;;;;4.75;100.00;96947.63;5087463;28;20036;-67
2022/11/26 08:41:12;;;;;;;11.77;7.28;;;;;;;4.71;100.00;96948.69;5090530;28;20130;-67
2022/11/26 08:43:38;;;;;;;14.13;8.40;;;;;;;4.71;100.00;96953.91;5091636;28;20472;-69
2022/11/26 08:46:05;;;;;;;12.77;7.00;;;;;;;4.91;100.00;96957.31;5089943;28;20123;-67
2022/11/26 08:48:30;;;;;;;14.85;7.40;;;;;;;5.02;100.00;96963.69;5083199;28;20028;-68
2022/11/26 08:50:58;;;;;;;10.95;6.53;;;;;;;4.95;100.00;96956.22;5087403;28;20040;-58
2022/11/26 08:53:23;;;;;;;8.07;5.85;;;;;;;4.97;100.00;96938.72;5081940;28;20095;-62
2022/11/26 08:55:49;;;;;;;10.02;6.25;;;;;;;4.94;100.00;96944.09;5074966;28;20164;-63
2022/11/26 08:58:14;;;;;;;8.23;6.70;;;;;;;4.94;100.00;96937.13;5078245;28;20115;-62
2022/11/26 09:00:40;;;;;;;13.35;7.97;;;;;;;5.11;100.00;96936.28;5080734;28;20024;-62
2022/11/26 09:03:06;;;;;;;7.55;5.95;;;;;;;5.10;100.00;96939.81;5079198;28;20031;-62
2022/11/26 09:05:31;;;;;;;7.38;6.43;;;;;;;5.12;100.00;96937.97;5068407;28;20557;-62
2022/11/26 09:07:57;;;;;;;12.00;7.43;;;;;;;5.22;100.00;96940.13;5079259;28;20150;-61
2022/11/26 09:10:22;;;;;;;11.30;7.57;;;;;;;5.44;100.00;96932.03;5076671;28;20108;-69
2022/11/26 09:12:47;;;;;;;9.30;7.63;;;;;;;5.57;100.00;96933.09;5082888;28;20016;-61
2022/11/26 09:15:13;;;;;;;13.80;8.48;;;;;;;5.75;100.00;96927.81;5081571;28;20036;-61
2022/11/26 09:17:38;;;;;;;12.77;8.68;;;;;;;5.81;100.00;96927.47;5090079;28;20103;-61
2022/11/26 09:20:04;;;;;;;9.30;7.72;;;;;;;5.83;100.00;96922.16;5087837;28;20486;-61
2022/11/26 09:22:29;;;;;;;10.07;6.65;;;;;;;5.68;100.00;96919.47;5085749;28;20008;-61
2022/11/26 09:24:55;;;;;;;10.18;7.25;;;;;;;5.45;100.00;96928.50;5083047;28;20024;-60
2022/11/26 09:27:20;;;;;;;9.70;6.18;;;;;;;5.27;100.00;96925.91;5081696;28;20584;-61
2022/11/26 09:29:45;;;;;;;8.90;5.90;;;;;;;5.18;100.00;96928.13;5084283;28;20501;-67
2022/11/26 09:32:11;;;;;;;9.13;5.20;;;;;;;5.21;100.00;96918.38;5086688;28;20459;-64
2022/11/26 09:34:37;;;;;;;9.85;6.07;;;;;;;5.54;100.00;96921.94;5085706;28;20062;-63
2022/11/26 09:37:02;;;;;;;7.57;4.82;;;;;;;5.95;100.00;96911.06;5082834;28;20024;-63
2022/11/26 09:39:28;;;;;;;10.23;7.03;;;;;;;6.34;100.00;96908.97;5081109;28;20034;-64
2022/11/26 09:42:26;;;;;;;8.38;6.22;;;;;;;6.53;100.00;96915.78;5091267;28;20020;-64
2022/11/26 09:45:09;;;;;;;8.15;6.22;;;;;;;6.63;100.00;96903.88;5081120;28;20524;-65
2022/11/26 09:47:46;;;;;;;9.40;6.80;;;;;;;6.84;100.00;96909.66;5078333;28;20036;-63
2022/11/26 09:50:12;;;;;;;13.70;8.18;;;;;;;7.06;100.00;96899.69;5083437;28;20128;-65
2022/11/26 09:52:43;;;;;;;9.77;5.63;;;;;;;7.18;98.08;96901.59;5080089;28;20055;-61
2022/11/26 09:55:18;;;;;;;8.50;5.10;;;;;;;7.43;97.23;96900.13;5057833;28;20397;-60
2022/11/26 09:58:11;;;;;;;8.48;7.38;;;;;;;7.65;95.23;96904.91;5087267;28;20412;-60
2022/11/26 10:00:43;;;;;;;9.55;8.25;;;;;;;7.81;93.92;96906.56;5057339;28;20534;-60
2022/11/26 10:03:17;;;;;;;15.45;11.68;;;;;;;7.72;95.60;96907.97;5087763;28;20032;-61
2022/11/26 10:06:00;;;;;;;11.23;7.28;;;;;;;7.62;95.23;96915.56;5081794;28;20432;-61
2022/11/26 10:08:33;;;;;;;5.95;5.43;;;;;;;7.51;95.37;96918.00;5088080;28;20035;-58
2022/11/26 10:11:04;;;;;;;6.47;5.88;;;;;;;7.38;94.69;96915.28;5084534;28;20020;-61
2022/11/26 10:14:14;;;;;;;9.13;5.30;;;;;;;7.08;94.59;96905.69;5082897;28;20067;-61
2022/11/26 10:16:44;;;;;;;11.23;9.77;;;;;;;6.90;97.01;96904.97;5011813;28;20778;-61
2022/11/26 10:19:19;;;;;;;14.48;7.55;;;;;;;6.73;98.73;96901.56;5068747;28;20040;-61
2022/11/26 10:21:52;;;;;;;13.27;9.10;;;;;;;6.62;98.31;96906.56;5084245;28;20054;-61
2022/11/26 10:24:24;;;;;;;8.85;7.03;;;;;;;6.53;99.61;96916.66;5066413;28;20035;-61
2022/11/26 10:26:51;;;;;;;9.60;8.48;;;;;;;6.51;100.00;96918.47;5081850;28;20061;-64
2022/11/26 10:29:34;;;;;;;12.57;6.60;;;;;;;6.49;99.64;96914.28;5086077;28;20599;-58
2022/11/26 10:32:12;;;;;;;8.82;5.55;;;;;;;6.40;99.60;96911.22;5086942;28;20016;-61
2022/11/26 10:34:55;;;;;;;6.00;5.40;;;;;;;6.41;100.00;96915.56;5081472;28;20528;-62
2022/11/26 10:37:23;;;;;;;7.82;6.28;;;;;;;6.45;100.00;96916.22;5081784;28;20024;-61
2022/11/26 10:39:54;;;;;;;9.07;5.70;;;;;;;6.54;99.29;96920.09;5082954;28;20074;-62
2022/11/26 10:42:21;;;;;;;12.82;6.45;;;;;;;6.56;98.96;96919.09;5083359;28;20478;-61
2022/11/26 10:44:49;;;;;;;11.77;6.95;;;;;;;6.65;99.54;96914.25;5079086;28;20505;-61
2022/11/26 10:47:20;;;;;;;10.73;5.97;;;;;;;6.69;99.07;96911.38;5087323;28;20028;-62
2022/11/26 10:49:46;;;;;;;10.20;5.18;;;;;;;6.80;97.77;96895.06;5078213;28;20118;-67
2022/11/26 10:52:16;;;;;;;9.23;4.78;;;;;;;6.74;98.26;96904.09;5081943;28;20028;-66
2022/11/26 10:54:43;;;;;;;5.05;4.55;;;;;;;6.81;97.91;96895.88;5076631;28;20103;-66
2022/11/26 10:57:08;;;;;;;10.35;5.40;;;;;;;6.82;97.69;96894.94;5079690;28;20059;-66
2022/11/26 10:59:43;;;;;;;8.88;5.28;;;;;;;6.74;97.61;96879.69;5080527;28;20795;-66
2022/11/26 11:02:37;;;;;;;5.30;4.90;;;;;;;6.83;97.33;96881.78;5080231;28;20382;-66
2022/11/26 11:05:06;;;;;;;7.38;5.47;;;;;;;6.91;95.78;96877.88;5084032;28;20028;-66
2022/11/26 11:07:32;;;;;;;6.45;4.75;;;;;;;6.99;93.88;96879.09;5084741;28;20019;-61
2022/11/26 11:10:07;;;;;;;7.30;5.60;;;;;;;7.25;94.20;96881.13;5087221;28;20028;-62
2022/11/26 11:12:37;;;;;;;10.75;5.82;;;;;;;7.30;90.47;96893.00;5084166;28;20051;-61
2022/11/26 11:15:24;;;;;;;6.07;4.43;;;;;;;7.30;89.46;96890.38;5086503;28;20165;-63
2022/11/26 11:18:00;;;;;;;6.18;4.85;;;;;;;7.35;92.13;96884.03;5082876;28;20028;-63
2022/11/26 11:20:34;;;;;;;5.70;4.05;;;;;;;7.44;90.43;96886.06;5085019;28;20115;-64
2022/11/26 11:23:00;;;;;;;6.47;5.20;;;;;;;7.95;90.47;96885.59;5076859;28;20032;-64
2022/11/26 11:25:29;;;;;;;8.45;6.95;;;;;;;8.59;88.92;96882.44;5080498;28;20035;-72
2022/11/26 11:28:01;;;;;;;6.68;4.60;;;;;;;9.00;83.77;96882.41;5082627;28;20091;-65
2022/11/26 11:30:29;;;;;;;4.60;4.20;;;;;;;9.22;79.70;96880.97;5077564;28;20402;-62
2022/11/26 11:32:56;;;;;;;5.80;4.20;;;;;;;9.45;79.80;96888.13;5085799;28;20048;-63
2022/11/26 11:35:24;;;;;;;5.63;4.30;;;;;;;9.55;80.88;96874.34;5083638;28;20020;-62